Time;durP1;ratioP1;P1;durP2;ratioP2;P2;SDS_P1;SDS_P2;PMS_P1;PMS_P2;Temp;Humidity;BMP_temperature;BMP_pressure;BME280_temperature;BME280_humidity;BME280_pressure;Samples;Min_cycle;Max_cycle;Signal;HPM_P1;HPM_P2
2023/01/04 00:01:13;;;;;;;20.98;8.77;;;;;;;;;;4359990;28;10000106;-83
2023/01/04 00:03:39;;;;;;;18.95;8.05;;;;;;;;;;5059611;28;20086;-82
2023/01/04 00:06:06;;;;;;;13.93;7.75;;;;;;;;;;5063748;28;20032;-82
2023/01/04 00:08:32;;;;;;;17.02;8.32;;;;;;;;;;5057944;28;20020;-83
2023/01/04 00:11:02;;;;;;;15.88;8.30;;;;;;;;;;5059828;28;22520;-83
2023/01/04 00:13:29;;;;;;;15.93;7.38;;;;;;;;;;5055624;28;20050;-83
2023/01/04 00:15:55;;;;;;;15.60;8.27;;;;;;;;;;5056547;28;20039;-83
2023/01/04 00:18:21;;;;;;;18.08;9.15;;;;;;;;;;5072982;28;20468;-83
2023/01/04 00:20:47;;;;;;;17.77;7.78;;;;;;;;;;5070839;28;20020;-83
2023/01/04 00:23:13;;;;;;;18.17;8.55;;;;;;;;;;5082816;28;20024;-82
2023/01/04 00:25:39;;;;;;;18.48;8.73;;;;;;;;;;5067666;28;20056;-83
2023/01/04 00:28:05;;;;;;;16.90;9.13;;;;;;;;;;5077896;28;20036;-84
2023/01/04 00:30:31;;;;;;;20.55;8.07;;;;;;;;;;5061689;28;20029;-83
2023/01/04 00:32:57;;;;;;;19.73;7.70;;;;;;;;;;5067573;28;20025;-83
2023/01/04 00:35:24;;;;;;;16.10;7.75;;;;;;;;;;5063372;28;20377;-84
2023/01/04 00:37:50;;;;;;;15.80;8.18;;;;;;;;;;5066696;28;20060;-84
2023/01/04 00:40:16;;;;;;;15.13;7.53;;;;;;;;;;5070280;28;20059;-83
2023/01/04 00:42:42;;;;;;;19.42;8.05;;;;;;;;;;5064902;28;20012;-84
2023/01/04 00:45:08;;;;;;;21.00;7.63;;;;;;;;;;5065931;28;20041;-84
2023/01/04 00:47:34;;;;;;;18.30;8.45;;;;;;;;;;5072917;28;20052;-83
2023/01/04 00:50:00;;;;;;;19.67;7.82;;;;;;;;;;5067144;28;20025;-84
2023/01/04 00:52:26;;;;;;;16.38;7.60;;;;;;;;;;5064010;28;20473;-83
2023/01/04 00:54:52;;;;;;;15.05;7.20;;;;;;;;;;5069952;28;20032;-83
2023/01/04 00:57:18;;;;;;;14.50;7.53;;;;;;;;;;5064516;28;20024;-83
2023/01/04 00:59:44;;;;;;;16.73;7.30;;;;;;;;;;5070254;28;20430;-84
2023/01/04 01:02:10;;;;;;;17.05;6.60;;;;;;;;;;5068626;28;20024;-83
2023/01/04 01:04:36;;;;;;;17.02;7.05;;;;;;;;;;5066893;28;20036;-83
2023/01/04 01:07:02;;;;;;;15.88;6.18;;;;;;;;;;5060224;28;20037;-83
2023/01/04 01:09:28;;;;;;;13.77;6.70;;;;;;;;;;5063729;28;20036;-83
2023/01/04 01:11:54;;;;;;;11.75;6.30;;;;;;;;;;5068299;28;20021;-82
2023/01/04 01:14:21;;;;;;;15.07;6.10;;;;;;;;;;5067439;28;20042;-84
2023/01/04 01:16:47;;;;;;;14.88;6.32;;;;;;;;;;5066126;28;20460;-84
2023/01/04 01:19:13;;;;;;;11.55;6.10;;;;;;;;;;5064030;28;20074;-83
2023/01/04 01:21:39;;;;;;;13.93;6.35;;;;;;;;;;5060899;28;20400;-84
2023/01/04 01:24:06;;;;;;;13.98;5.60;;;;;;;;;;5065764;28;20036;-83
2023/01/04 01:26:32;;;;;;;11.98;5.68;;;;;;;;;;5065403;28;20032;-83
2023/01/04 01:28:58;;;;;;;13.02;5.75;;;;;;;;;;5064788;28;20554;-83
2023/01/04 01:31:26;;;;;;;9.80;5.35;;;;;;;;;;5058839;28;20032;-82
2023/01/04 01:33:53;;;;;;;13.98;6.15;;;;;;;;;;5057120;28;20618;-84
2023/01/04 01:36:20;;;;;;;13.27;5.38;;;;;;;;;;5075911;28;20031;-84
2023/01/04 01:38:46;;;;;;;11.40;4.88;;;;;;;;;;5064462;28;20051;-84
2023/01/04 01:41:18;;;;;;;15.32;5.18;;;;;;;;;;5066307;28;20059;-84
2023/01/04 01:44:22;;;;;;;11.75;5.47;;;;;;;;;;5064835;28;20031;-84
2023/01/04 01:46:49;;;;;;;12.05;4.88;;;;;;;;;;5063493;28;20032;-84
2023/01/04 01:49:21;;;;;;;12.07;5.07;;;;;;;;;;5064301;28;20103;-84
2023/01/04 01:51:47;;;;;;;10.43;5.20;;;;;;;;;;5063559;28;20389;-84
2023/01/04 01:54:16;;;;;;;10.77;4.70;;;;;;;;;;5064949;28;20020;-84
2023/01/04 01:56:42;;;;;;;14.32;5.28;;;;;;;;;;5060679;28;20028;-84
2023/01/04 01:59:10;;;;;;;11.50;4.60;;;;;;;;;;5068298;28;20442;-84
2023/01/04 02:01:36;;;;;;;11.18;5.13;;;;;;;;;;5065896;28;20028;-84
2023/01/04 02:04:03;;;;;;;10.73;4.43;;;;;;;;;;5060439;28;20047;-84
2023/01/04 02:06:32;;;;;;;10.68;5.50;;;;;;;;;;5064394;28;20052;-84
2023/01/04 02:08:59;;;;;;;14.10;4.25;;;;;;;;;;5056431;28;20056;-83
2023/01/04 02:11:25;;;;;;;9.80;5.28;;;;;;;;;;5057887;28;20139;-83
2023/01/04 02:17:02;;;;;;;13.10;4.70;;;;;;;;;;5059674;28;20165;-83
2023/01/04 02:19:47;;;;;;;11.60;4.93;;;;;;;;;;5059183;28;20029;-83
2023/01/04 02:22:22;;;;;;;13.38;5.10;;;;;;;;;;5067520;28;20111;-84
2023/01/04 02:24:51;;;;;;;11.10;4.43;;;;;;;;;;5071990;28;20039;-83
2023/01/04 02:27:36;;;;;;;9.70;4.60;;;;;;;;;;5065844;28;20148;-83
2023/01/04 02:30:05;;;;;;;11.20;4.70;;;;;;;;;;5059720;28;20119;-82
2023/01/04 02:32:43;;;;;;;12.70;4.50;;;;;;;;;;5056597;28;20055;-82
2023/01/04 02:35:18;;;;;;;9.55;4.60;;;;;;;;;;5061101;28;20040;-83
2023/01/04 02:37:57;;;;;;;13.80;5.32;;;;;;;;;;5072884;28;20021;-84
2023/01/04 02:40:28;;;;;;;8.55;4.63;;;;;;;;;;5058577;28;20076;-83
2023/01/04 02:45:47;;;;;;;10.05;4.40;;;;;;;;;;5079463;28;20123;-84
2023/01/04 02:50:58;;;;;;;8.45;4.38;;;;;;;;;;5063959;28;20211;-83
2023/01/04 02:53:35;;;;;;;9.75;4.15;;;;;;;;;;5048050;28;20041;-83
2023/01/04 02:56:10;;;;;;;11.15;4.18;;;;;;;;;;5060513;28;20032;-84
2023/01/04 02:58:55;;;;;;;9.90;3.58;;;;;;;;;;5051781;28;20487;-84
2023/01/04 03:07:17;;;;;;;8.30;4.22;;;;;;;;;;5063831;28;20550;-83
2023/01/04 03:09:46;;;;;;;13.43;4.35;;;;;;;;;;5062494;28;20111;-83
2023/01/04 03:12:31;;;;;;;10.60;4.65;;;;;;;;;;5059366;28;20086;-82
2023/01/04 03:15:17;;;;;;;10.85;4.60;;;;;;;;;;5058170;28;20025;-84
2023/01/04 03:17:49;;;;;;;11.25;4.70;;;;;;;;;;5055960;28;20591;-83
2023/01/04 03:20:16;;;;;;;5.72;3.30;;;;;;;;;;5061522;28;20032;-83
2023/01/04 03:36:52;;;;;;;9.63;3.83;;;;;;;;;;5064868;28;20216;-82
2023/01/04 03:50:54;;;;;;;13.52;4.30;;;;;;;;;;5074521;28;20063;-83
2023/01/04 03:53:20;;;;;;;8.80;4.45;;;;;;;;;;5064474;28;20020;-83
2023/01/04 03:55:48;;;;;;;11.75;4.72;;;;;;;;;;5059913;28;20485;-83
2023/01/04 03:58:14;;;;;;;10.10;5.05;;;;;;;;;;5083425;28;20055;-82
2023/01/04 04:00:40;;;;;;;8.85;4.63;;;;;;;;;;5064525;28;20072;-82
2023/01/04 04:03:07;;;;;;;9.38;4.80;;;;;;;;;;5067554;28;20060;-83
2023/01/04 04:08:28;;;;;;;9.13;5.38;;;;;;;;;;5076334;28;20035;-80
2023/01/04 04:10:55;;;;;;;13.45;5.95;;;;;;;;;;5079991;28;20024;-84
2023/01/04 04:13:21;;;;;;;12.68;6.20;;;;;;;;;;5074540;28;20036;-83
2023/01/04 04:15:47;;;;;;;12.65;5.63;;;;;;;;;;5067555;28;20032;-83
2023/01/04 04:18:13;;;;;;;14.93;5.80;;;;;;;;;;5059262;28;20020;-83
2023/01/04 04:20:39;;;;;;;11.85;5.78;;;;;;;;;;5061024;28;20091;-83
2023/01/04 04:23:05;;;;;;;10.77;6.00;;;;;;;;;;5069376;28;20029;-81
2023/01/04 04:25:31;;;;;;;12.35;5.50;;;;;;;;;;5058533;28;20446;-82
2023/01/04 04:27:57;;;;;;;14.38;5.85;;;;;;;;;;5058137;28;20082;-83
2023/01/04 04:30:23;;;;;;;11.00;5.68;;;;;;;;;;5062057;28;20032;-82
2023/01/04 04:32:49;;;;;;;11.23;6.00;;;;;;;;;;5063445;28;20033;-82
2023/01/04 04:35:15;;;;;;;12.57;5.82;;;;;;;;;;5063232;28;20039;-83
2023/01/04 04:37:41;;;;;;;9.85;5.90;;;;;;;;;;5071820;28;20069;-83
2023/01/04 04:41:36;;;;;;;11.43;6.32;;;;;;;;;;5071470;28;20050;-83
2023/01/04 04:42:53;;;;;;;12.90;6.78;;;;;;;;;;5070840;28;20681;-84
2023/01/04 04:45:19;;;;;;;12.13;6.78;;;;;;;;;;5083800;28;20020;-83
2023/01/04 04:47:45;;;;;;;15.40;6.72;;;;;;;;;;5069480;28;20485;-82
2023/01/04 04:50:11;;;;;;;13.43;7.25;;;;;;;;;;5067660;28;20028;-82
2023/01/04 04:52:40;;;;;;;13.23;8.00;;;;;;;;;;5063714;28;20505;-83
2023/01/04 04:55:06;;;;;;;17.70;7.93;;;;;;;;;;5069504;28;20032;-82
2023/01/04 04:57:32;;;;;;;13.05;7.97;;;;;;;;;;5060175;28;20127;-83
2023/01/04 04:59:58;;;;;;;16.95;7.93;;;;;;;;;;5062645;28;20115;-84
2023/01/04 05:02:24;;;;;;;14.18;8.70;;;;;;;;;;5066078;28;21136;-83
2023/01/04 05:04:50;;;;;;;15.88;8.63;;;;;;;;;;5070074;28;20036;-87
2023/01/04 05:07:16;;;;;;;16.10;8.70;;;;;;;;;;5060341;28;20040;-83
2023/01/04 05:09:42;;;;;;;15.80;8.93;;;;;;;;;;5061267;28;20442;-87
2023/01/04 05:15:01;;;;;;;15.47;8.40;;;;;;;;;;5034799;28;20063;-86
2023/01/04 05:17:27;;;;;;;12.88;8.32;;;;;;;;;;5072976;28;20039;-86
2023/01/04 05:19:53;;;;;;;16.52;8.80;;;;;;;;;;5062298;28;20028;-87
2023/01/04 05:22:19;;;;;;;17.00;8.70;;;;;;;;;;5058880;28;20024;-87
2023/01/04 05:24:45;;;;;;;16.38;8.80;;;;;;;;;;5071907;28;20111;-88
2023/01/04 05:27:11;;;;;;;15.82;8.48;;;;;;;;;;5069542;28;20079;-87
2023/01/04 05:32:22;;;;;;;14.80;8.45;;;;;;;;;;5054486;28;20034;-86
2023/01/04 05:34:48;;;;;;;16.38;8.20;;;;;;;;;;5064603;28;20028;-85
2023/01/04 05:37:14;;;;;;;14.02;7.93;;;;;;;;;;5066089;28;20035;-85
2023/01/04 05:39:40;;;;;;;14.13;8.43;;;;;;;;;;5054105;28;20020;-84
2023/01/04 05:42:24;;;;;;;12.85;8.35;;;;;;;;;;5047739;28;20056;-84
2023/01/04 05:44:50;;;;;;;14.02;8.63;;;;;;;;;;5055150;28;20108;-84
2023/01/04 05:47:16;;;;;;;15.50;9.32;;;;;;;;;;5051054;28;20570;-84
2023/01/04 05:49:42;;;;;;;14.90;9.02;;;;;;;;;;5054526;28;20021;-83
2023/01/04 05:52:08;;;;;;;14.73;9.10;;;;;;;;;;5047347;28;20036;-84
2023/01/04 05:54:34;;;;;;;15.38;9.75;;;;;;;;;;5052271;28;20101;-84
2023/01/04 05:57:00;;;;;;;18.08;9.45;;;;;;;;;;5054672;28;20109;-83
2023/01/04 05:59:26;;;;;;;17.50;9.80;;;;;;;;;;5054230;28;20469;-84
2023/01/04 06:01:52;;;;;;;15.55;10.18;;;;;;;;;;5046793;28;20040;-84
2023/01/04 06:04:19;;;;;;;16.92;9.75;;;;;;;;;;5052569;28;20032;-84
2023/01/04 06:06:45;;;;;;;15.40;10.13;;;;;;;;;;5057807;28;20029;-85
2023/01/04 06:09:11;;;;;;;17.88;10.05;;;;;;;;;;5055533;28;20029;-84
2023/01/04 06:11:37;;;;;;;16.95;10.82;;;;;;;;;;5059747;28;20487;-85
2023/01/04 06:14:03;;;;;;;17.60;10.35;;;;;;;;;;5054807;28;20041;-83
2023/01/04 06:16:29;;;;;;;14.80;10.80;;;;;;;;;;5060631;28;20438;-85
2023/01/04 06:18:55;;;;;;;18.85;10.88;;;;;;;;;;5065513;28;20035;-84
2023/01/04 06:21:21;;;;;;;14.98;10.85;;;;;;;;;;5052583;28;20436;-84
2023/01/04 06:23:47;;;;;;;20.38;12.10;;;;;;;;;;5068074;28;20020;-84
2023/01/04 06:26:13;;;;;;;19.52;12.25;;;;;;;;;;5061655;28;20028;-84
2023/01/04 06:28:39;;;;;;;18.35;11.30;;;;;;;;;;5056328;28;20089;-84
2023/01/04 06:31:06;;;;;;;18.98;11.73;;;;;;;;;;5052917;28;20367;-82
2023/01/04 06:33:32;;;;;;;16.27;11.50;;;;;;;;;;5053112;28;20273;-83
2023/01/04 06:35:58;;;;;;;16.65;11.32;;;;;;;;;;5056588;28;20031;-83
2023/01/04 06:38:24;;;;;;;20.77;12.02;;;;;;;;;;5060249;28;20016;-84
2023/01/04 06:40:50;;;;;;;19.30;11.73;;;;;;;;;;5062815;28;20029;-84
2023/01/04 06:43:16;;;;;;;17.50;11.73;;;;;;;;;;5064026;28;20121;-85
2023/01/04 06:45:42;;;;;;;17.08;11.35;;;;;;;;;;5070353;28;20491;-85
2023/01/04 06:48:08;;;;;;;17.90;11.65;;;;;;;;;;5070739;28;20047;-84
2023/01/04 06:50:34;;;;;;;17.38;11.73;;;;;;;;;;5061787;28;20032;-85
2023/01/04 06:53:00;;;;;;;19.80;12.10;;;;;;;;;;5058785;28;20178;-83
2023/01/04 06:55:28;;;;;;;18.85;11.82;;;;;;;;;;5073614;28;20032;-85
2023/01/04 06:57:54;;;;;;;17.77;12.23;;;;;;;;;;5056308;28;20035;-85
2023/01/04 07:00:20;;;;;;;18.10;12.30;;;;;;;;;;5056621;28;20020;-83
2023/01/04 07:02:46;;;;;;;18.83;13.38;;;;;;;;;;5052755;28;20017;-85
2023/01/04 07:05:12;;;;;;;22.48;13.52;;;;;;;;;;5053424;28;20040;-86
2023/01/04 07:07:38;;;;;;;19.27;12.52;;;;;;;;;;5062301;28;20344;-84
2023/01/04 07:10:04;;;;;;;18.48;12.77;;;;;;;;;;5063905;28;20051;-86
2023/01/04 07:12:31;;;;;;;18.27;12.50;;;;;;;;;;5067339;28;20443;-84
2023/01/04 07:14:57;;;;;;;20.15;13.23;;;;;;;;;;5060455;28;20024;-86
2023/01/04 07:17:23;;;;;;;17.45;12.63;;;;;;;;;;5052314;28;20017;-85
2023/01/04 07:19:49;;;;;;;18.45;12.88;;;;;;;;;;5057574;28;20056;-86
2023/01/04 07:22:16;;;;;;;17.15;12.50;;;;;;;;;;5061979;28;20055;-85
2023/01/04 07:24:42;;;;;;;20.25;12.70;;;;;;;;;;5061910;28;20050;-85
2023/01/04 07:27:09;;;;;;;17.98;13.38;;;;;;;;;;5057927;28;20043;-86
2023/01/04 07:29:35;;;;;;;20.75;13.50;;;;;;;;;;5065077;28;20343;-86
2023/01/04 07:32:01;;;;;;;21.10;13.95;;;;;;;;;;5060981;28;20063;-86
2023/01/04 07:34:28;;;;;;;22.35;13.50;;;;;;;;;;5060827;28;20051;-84
2023/01/04 07:36:54;;;;;;;22.70;14.50;;;;;;;;;;5055291;28;20028;-85
2023/01/04 07:39:20;;;;;;;23.48;14.93;;;;;;;;;;5063078;28;20043;-85
2023/01/04 07:41:47;;;;;;;22.75;14.43;;;;;;;;;;5058388;28;20021;-86
2023/01/04 07:44:13;;;;;;;25.02;15.75;;;;;;;;;;5065366;28;20064;-85
2023/01/04 07:46:40;;;;;;;23.13;15.65;;;;;;;;;;5061696;28;20129;-84
2023/01/04 07:49:06;;;;;;;26.42;16.58;;;;;;;;;;5057446;28;20127;-87
2023/01/04 07:51:32;;;;;;;23.33;16.02;;;;;;;;;;5062300;28;20119;-84
2023/01/04 07:53:58;;;;;;;22.13;16.15;;;;;;;;;;5070789;28;20088;-86
2023/01/04 07:56:24;;;;;;;24.02;16.17;;;;;;;;;;5066473;28;20021;-87
2023/01/04 07:58:55;;;;;;;23.17;15.70;;;;;;;;;;5064665;28;20039;-87
2023/01/04 08:01:22;;;;;;;20.38;14.75;;;;;;;;;;5062686;28;20028;-85
2023/01/04 08:03:47;;;;;;;21.20;15.30;;;;;;;;;;5063681;28;20102;-87
2023/01/04 08:06:15;;;;;;;22.50;15.63;;;;;;;;;;5064872;28;20570;-86
2023/01/04 08:08:41;;;;;;;22.88;15.32;;;;;;;;;;5066889;28;20024;-87
2023/01/04 08:11:08;;;;;;;23.45;15.65;;;;;;;;;;5067486;28;20032;-87
2023/01/04 08:13:34;;;;;;;22.27;15.85;;;;;;;;;;5064041;28;20089;-86
2023/01/04 08:16:00;;;;;;;21.42;14.73;;;;;;;;;;5064704;28;20056;-86
2023/01/04 08:18:26;;;;;;;19.95;14.90;;;;;;;;;;5061282;28;20038;-86
2023/01/04 08:21:06;;;;;;;22.80;14.80;;;;;;;;;;5062754;28;20020;-86
2023/01/04 08:23:32;;;;;;;22.90;15.00;;;;;;;;;;5064133;28;20079;-85
2023/01/04 08:26:06;;;;;;;22.40;14.73;;;;;;;;;;5064159;28;20528;-87
2023/01/04 08:28:32;;;;;;;21.70;15.13;;;;;;;;;;5062137;28;20474;-87
2023/01/04 08:30:59;;;;;;;25.92;16.05;;;;;;;;;;5058199;28;20389;-87
2023/01/04 08:33:25;;;;;;;22.27;16.08;;;;;;;;;;5062240;28;20389;-85
2023/01/04 08:35:51;;;;;;;22.15;15.55;;;;;;;;;;5056490;28;20462;-84
2023/01/04 08:38:17;;;;;;;24.05;15.80;;;;;;;;;;5057436;28;20198;-86
2023/01/04 08:40:43;;;;;;;21.55;15.70;;;;;;;;;;5063715;28;20028;-85
2023/01/04 08:43:09;;;;;;;26.38;15.98;;;;;;;;;;5060823;28;20016;-86
2023/01/04 08:45:35;;;;;;;23.35;16.05;;;;;;;;;;5058351;28;20408;-85
2023/01/04 08:48:01;;;;;;;19.95;15.25;;;;;;;;;;5063418;28;20046;-88
2023/01/04 08:50:27;;;;;;;23.60;16.05;;;;;;;;;;5065452;28;20036;-92
2023/01/04 08:52:53;;;;;;;20.00;15.38;;;;;;;;;;5057412;28;20028;-88
2023/01/04 08:55:19;;;;;;;20.92;14.93;;;;;;;;;;5065771;28;20485;-86
2023/01/04 08:57:44;;;;;;;21.73;15.20;;;;;;;;;;5059060;28;20074;-86
2023/01/04 09:00:11;;;;;;;20.52;14.75;;;;;;;;;;5064691;28;20032;-86
2023/01/04 09:02:37;;;;;;;21.58;14.40;;;;;;;;;;5060209;28;20376;-81
2023/01/04 09:05:03;;;;;;;21.95;15.15;;;;;;;;;;5056600;28;20592;-80
2023/01/04 09:07:30;;;;;;;21.48;15.30;;;;;;;;;;5065827;28;20625;-80
2023/01/04 09:09:56;;;;;;;22.25;16.48;;;;;;;;;;5056767;28;20381;-81
2023/01/04 09:12:22;;;;;;;20.63;15.65;;;;;;;;;;5067290;28;20040;-82
2023/01/04 09:14:48;;;;;;;21.77;15.68;;;;;;;;;;5059554;28;20287;-80
2023/01/04 09:17:15;;;;;;;20.75;14.65;;;;;;;;;;5064876;28;20024;-81
2023/01/04 09:19:41;;;;;;;20.05;14.70;;;;;;;;;;5062350;28;20029;-82
2023/01/04 09:22:07;;;;;;;19.77;14.50;;;;;;;;;;5067439;28;20032;-82
2023/01/04 09:24:33;;;;;;;20.98;15.40;;;;;;;;;;5059563;28;20020;-78
2023/01/04 09:26:59;;;;;;;20.40;15.20;;;;;;;;;;5063935;28;20055;-81
2023/01/04 09:29:26;;;;;;;21.00;14.43;;;;;;;;;;5060212;28;20020;-85
2023/01/04 09:31:52;;;;;;;20.77;14.80;;;;;;;;;;5054634;28;20032;-82
2023/01/04 09:34:18;;;;;;;20.90;14.35;;;;;;;;;;5064548;28;20036;-84
2023/01/04 09:36:48;;;;;;;21.50;14.70;;;;;;;;;;5062652;28;20598;-83
2023/01/04 09:39:15;;;;;;;20.02;14.43;;;;;;;;;;5062411;28;20016;-85
2023/01/04 09:41:58;;;;;;;18.48;13.98;;;;;;;;;;5061388;28;20021;-83
2023/01/04 09:44:44;;;;;;;19.90;14.50;;;;;;;;;;5057902;28;20024;-82
2023/01/04 09:47:12;;;;;;;18.77;13.70;;;;;;;;;;5046037;28;20094;-84
2023/01/04 09:49:38;;;;;;;20.38;14.07;;;;;;;;;;5068486;28;20358;-85
2023/01/04 09:52:10;;;;;;;22.23;14.25;;;;;;;;;;5054018;28;20430;-84
2023/01/04 09:54:43;;;;;;;20.75;14.63;;;;;;;;;;5061558;28;20085;-82
2023/01/04 09:57:17;;;;;;;22.02;14.32;;;;;;;;;;5057548;28;20572;-82
2023/01/04 09:59:43;;;;;;;20.23;14.02;;;;;;;;;;5070660;28;20036;-83
2023/01/04 10:02:14;;;;;;;22.65;14.80;;;;;;;;;;5063753;28;20117;-82
2023/01/04 10:04:48;;;;;;;20.92;15.05;;;;;;;;;;5063612;28;20043;-82
2023/01/04 10:07:17;;;;;;;21.10;14.93;;;;;;;;;;5057004;28;20032;-81
2023/01/04 10:09:43;;;;;;;20.08;14.23;;;;;;;;;;5062690;28;20036;-83
2023/01/04 10:12:28;;;;;;;20.67;14.02;;;;;;;;;;5058094;28;20032;-83
2023/01/04 10:14:54;;;;;;;21.15;14.02;;;;;;;;;;5057089;28;20324;-83
2023/01/04 10:17:26;;;;;;;23.02;13.60;;;;;;;;;;5064835;28;20082;-85
2023/01/04 10:20:04;;;;;;;20.20;14.10;;;;;;;;;;5064011;28;20021;-81
2023/01/04 10:22:39;;;;;;;19.83;13.80;;;;;;;;;;5053933;28;20041;-83
2023/01/04 10:25:14;;;;;;;20.63;14.43;;;;;;;;;;5058307;28;20021;-86
2023/01/04 10:27:59;;;;;;;19.98;13.02;;;;;;;;;;5062005;28;20581;-81
2023/01/04 10:30:33;;;;;;;20.33;13.27;;;;;;;;;;5062020;28;20036;-82
2023/01/04 10:33:13;;;;;;;19.65;12.40;;;;;;;;;;5055344;28;20039;-80
2023/01/04 10:35:42;;;;;;;18.48;12.10;;;;;;;;;;5065651;28;20020;-78
2023/01/04 10:38:16;;;;;;;16.63;11.90;;;;;;;;;;5062525;28;20071;-79
2023/01/04 10:40:44;;;;;;;18.02;12.57;;;;;;;;;;5057559;28;20083;-80
2023/01/04 10:43:09;;;;;;;17.00;11.85;;;;;;;;;;5059097;28;20029;-78
2023/01/04 10:45:42;;;;;;;16.77;12.30;;;;;;;;;;5047671;28;20039;-80
2023/01/04 10:48:12;;;;;;;16.42;11.85;;;;;;;;;;5054632;28;20519;-79
2023/01/04 10:50:58;;;;;;;18.10;12.63;;;;;;;;;;5061728;28;20036;-78
2023/01/04 10:53:40;;;;;;;17.52;11.38;;;;;;;;;;5057766;28;20028;-80
2023/01/04 10:56:15;;;;;;;18.42;11.23;;;;;;;;;;5067255;28;20036;-80
2023/01/04 10:58:47;;;;;;;14.52;10.38;;;;;;;;;;5066717;28;20023;-85
2023/01/04 11:01:19;;;;;;;15.07;10.48;;;;;;;;;;5061329;28;20879;-79
2023/01/04 11:04:23;;;;;;;14.05;10.00;;;;;;;;;;5049386;28;20024;-82
2023/01/04 11:07:05;;;;;;;17.45;10.02;;;6.80;99.90;;;;;;5021153;28;20588;-76
2023/01/04 11:09:48;;;;;;;14.52;9.50;;;6.90;99.90;;;;;;5022438;28;20040;-82
2023/01/04 11:12:16;;;;;;;11.80;8.98;;;6.90;99.90;;;;;;5042604;28;20037;-84
2023/01/04 11:14:42;;;;;;;11.45;9.32;;;6.90;99.90;;;;;;5054062;28;20025;-86
2023/01/04 11:17:10;;;;;;;13.35;9.13;;;6.90;99.90;;;;;;5066187;28;20025;-86
2023/01/04 11:19:36;;;;;;;13.18;8.40;;;7.00;99.90;;;;;;5062131;28;20024;-85
2023/01/04 11:22:15;;;;;;;14.85;9.80;;;7.00;99.90;;;;;;5053869;28;20032;-84
2023/01/04 11:24:43;;;;;;;12.88;8.73;;;7.00;99.90;;;;;;5066408;28;20389;-86
2023/01/04 11:27:20;;;;;;;11.85;8.70;;;7.00;99.90;;;;;;5059878;28;20043;-86
2023/01/04 11:29:57;;;;;;;10.98;8.68;;;7.00;99.90;;;;;;5067958;28;20032;-86
2023/01/04 11:32:38;;;;;;;12.60;8.48;;;7.00;99.90;;;;;;5051218;28;20055;-85
2023/01/04 11:35:04;;;;;;;14.23;8.73;;;7.00;99.90;;;;;;5054298;28;20029;-85
2023/01/04 11:37:32;;;;;;;10.90;7.90;;;7.00;99.90;;;;;;5055042;28;20017;-85
2023/01/04 11:40:17;;;;;;;10.02;7.35;;;7.10;99.90;;;;;;5063974;28;20507;-87
2023/01/04 11:42:47;;;;;;;10.60;7.95;;;7.10;99.90;;;;;;5047733;28;20067;-86
2023/01/04 11:45:31;;;;;;;9.70;7.43;;;7.20;99.90;;;;;;5056672;28;20028;-84
2023/01/04 11:47:59;;;;;;;12.45;7.95;;;7.20;99.90;;;;;;5059782;28;20049;-87
2023/01/04 11:50:39;;;;;;;10.30;7.70;;;7.20;99.90;;;;;;5060543;28;20677;-86
2023/01/04 11:53:25;;;;;;;12.07;8.10;;;7.30;99.90;;;;;;5065846;28;20039;-86
2023/01/04 11:55:51;;;;;;;9.32;7.38;;;7.30;99.90;;;;;;5058863;28;20032;-85
2023/01/04 11:58:18;;;;;;;15.65;7.88;;;7.30;99.90;;;;;;5059683;28;20029;-85
2023/01/04 12:00:55;;;;;;;13.35;8.30;;;7.30;99.90;;;;;;5059214;28;20081;-83
2023/01/04 12:03:37;;;;;;;10.52;7.53;;;7.30;99.90;;;;;;5058696;28;20029;-83
2023/01/04 12:06:18;;;;;;;11.73;8.68;;;7.30;99.90;;;;;;5061309;28;20063;-82
2023/01/04 12:08:44;;;;;;;10.80;7.88;;;7.30;99.90;;;;;;5059853;28;20443;-82
2023/01/04 12:11:24;;;;;;;10.38;7.65;;;7.40;99.90;;;;;;5060887;28;20035;-82
2023/01/04 12:13:50;;;;;;;11.65;8.27;;;7.40;99.90;;;;;;5060871;28;20119;-83
2023/01/04 12:16:32;;;;;;;12.18;8.10;;;7.40;99.90;;;;;;5072543;28;20119;-82
2023/01/04 12:18:58;;;;;;;9.52;7.47;;;7.40;99.90;;;;;;5057277;28;20481;-84
2023/01/04 12:21:25;;;;;;;10.02;7.68;;;7.40;99.90;;;;;;5062981;28;20032;-83
2023/01/04 12:23:53;;;;;;;9.30;7.88;;;7.40;99.90;;;;;;5061369;28;20450;-84
2023/01/04 12:26:20;;;;;;;10.63;7.07;;;7.40;99.90;;;;;;5066540;28;20040;-82
2023/01/04 12:28:48;;;;;;;12.43;8.07;;;7.40;99.90;;;;;;5064095;28;20456;-84
2023/01/04 12:31:19;;;;;;;11.05;8.25;;;7.40;99.90;;;;;;5059166;28;20112;-83
2023/01/04 12:33:45;;;;;;;10.00;7.43;;;7.40;99.90;;;;;;5065163;28;20032;-83
2023/01/04 12:36:16;;;;;;;8.63;7.53;;;7.50;99.90;;;;;;5064552;28;20040;-82
2023/01/04 12:38:51;;;;;;;11.77;7.25;;;7.50;99.90;;;;;;5060447;28;20384;-81
2023/01/04 12:41:34;;;;;;;9.27;7.25;;;7.50;99.90;;;;;;5060942;28;20396;-83
2023/01/04 12:44:02;;;;;;;9.93;7.00;;;7.60;99.90;;;;;;5060324;28;20021;-81
2023/01/04 12:49:27;;;;;;;7.55;6.70;;;7.60;99.90;;;;;;5061914;28;20052;-83
2023/01/04 12:52:07;;;;;;;8.63;6.03;;;7.70;99.90;;;;;;5057727;28;20021;-83
2023/01/04 12:54:53;;;;;;;7.85;5.97;;;;;;;;;;5061194;28;20506;-84
2023/01/04 12:57:25;;;;;;;7.20;5.72;;;7.70;99.90;;;;;;5063821;28;20039;-82
2023/01/04 13:00:04;;;;;;;6.60;5.68;;;7.70;99.90;;;;;;5063330;28;20016;-84
2023/01/04 13:02:35;;;;;;;7.07;5.25;;;;;;;;;;5050471;28;20036;-83
2023/01/04 13:05:16;;;;;;;11.80;5.45;;;7.80;99.90;;;;;;5052554;28;20109;-84
2023/01/04 13:07:45;;;;;;;10.80;7.10;;;7.80;99.90;;;;;;5059878;28;20703;-83
2023/01/04 13:10:45;;;;;;;8.70;5.60;;;7.80;99.90;;;;;;5055361;28;20775;-84
2023/01/04 13:13:35;;;;;;;6.95;4.90;;;7.90;99.90;;;;;;5058405;28;20086;-83
2023/01/04 13:16:16;;;;;;;7.07;4.97;;;7.90;99.90;;;;;;5058110;28;20507;-80
2023/01/04 13:18:55;;;;;;;6.82;5.28;;;7.90;99.90;;;;;;5052620;28;20025;-81
2023/01/04 13:21:33;;;;;;;5.18;4.57;;;7.90;99.90;;;;;;5054962;28;20037;-84
2023/01/04 13:24:00;;;;;;;5.38;4.68;;;;;;;;;;5062455;28;20024;-82
2023/01/04 13:26:34;;;;;;;7.18;4.63;;;8.00;99.90;;;;;;5069047;28;20042;-81
2023/01/04 13:29:07;;;;;;;6.63;5.28;;;;;;;;;;5079995;28;20497;-82
2023/01/04 13:32:03;;;;;;;11.30;7.72;;;8.00;99.90;;;;;;5065560;28;20030;-81
2023/01/04 13:34:52;;;;;;;8.13;6.32;;;8.00;99.90;;;;;;5066582;28;20025;-82
2023/01/04 13:37:29;;;;;;;10.95;8.05;;;8.00;99.90;;;;;;5064240;28;20033;-81
2023/01/04 13:40:11;;;;;;;11.00;7.80;;;;;;;;;;5065650;28;20111;-81
2023/01/04 13:42:41;;;;;;;12.40;5.97;;;8.00;99.90;;;;;;5064858;28;20029;-81
2023/01/04 13:45:26;;;;;;;6.47;5.55;;;8.00;99.90;;;;;;5080611;28;20036;-81
2023/01/04 13:47:56;;;;;;;5.80;5.00;;;7.90;99.90;;;;;;5075536;28;20492;-81
2023/01/04 13:50:27;;;;;;;6.53;5.03;;;7.90;99.90;;;;;;5076577;28;20028;-82
2023/01/04 13:52:53;;;;;;;6.53;5.00;;;7.90;99.90;;;;;;5063851;28;20085;-84
2023/01/04 13:55:23;;;;;;;5.68;4.80;;;;;;;;;;5062666;28;20489;-81
2023/01/04 13:58:22;;;;;;;5.63;5.03;;;;;;;;;;5051819;28;20123;-82
2023/01/04 14:01:05;;;;;;;7.18;5.45;;;;;;;;;;5026926;28;20032;-85
2023/01/04 14:03:36;;;;;;;5.25;4.50;;;;;;;;;;5068960;28;20375;-83
2023/01/04 14:06:11;;;;;;;6.40;4.60;;;;;;;;;;5065023;28;20020;-82
2023/01/04 14:08:52;;;;;;;5.22;4.38;;;;;;;;;;5067934;28;20310;-81
2023/01/04 14:14:14;;;;;;;6.95;4.20;;;;;;;;;;5071957;28;20068;-82
2023/01/04 14:16:40;;;;;;;3.90;3.50;;;;;;;;;;5065165;28;20397;-83
2023/01/04 14:19:25;;;;;;;6.25;4.47;;;;;;;;;;5086091;28;20020;-81
2023/01/04 14:21:51;;;;;;;6.13;3.72;;;;;;;;;;5066123;28;20025;-83
2023/01/04 14:24:30;;;;;;;4.00;3.60;;;;;;;;;;5076250;28;20032;-84
2023/01/04 14:26:56;;;;;;;4.18;3.78;;;;;;;;;;5064361;28;20036;-88
2023/01/04 14:29:29;;;;;;;4.75;3.53;;;;;;;;;;5075756;28;20610;-87
2023/01/04 14:31:55;;;;;;;4.53;4.03;;;;;;;;;;5061416;28;20028;-80
2023/01/04 14:34:21;;;;;;;4.47;3.67;;;;;;;;;;5068494;28;20278;-81
2023/01/04 14:36:47;;;;;;;4.05;3.55;;;;;;;;;;5064039;28;20075;-89
2023/01/04 14:39:17;;;;;;;4.95;3.95;;;;;;;;;;5062707;28;20024;-88
2023/01/04 14:41:50;;;;;;;4.22;3.65;;;;;;;;;;5063216;28;20024;-86
2023/01/04 14:44:19;;;;;;;3.28;2.90;;;;;;;;;;5074356;28;20107;-83
2023/01/04 14:46:47;;;;;;;4.05;3.63;;;;;;;;;;5068131;28;20032;-82
2023/01/04 14:49:14;;;;;;;3.78;3.47;;;;;;;;;;5067487;28;20674;-80
2023/01/04 14:51:42;;;;;;;3.92;3.45;;;;;;;;;;5069588;28;20061;-83
2023/01/04 14:54:09;;;;;;;4.57;3.88;;;;;;;;;;5079323;28;20035;-80
2023/01/04 14:56:35;;;;;;;4.60;4.10;;;;;;;;;;5069342;28;20054;-83
2023/01/04 14:59:01;;;;;;;8.75;4.18;;;;;;;;;;5075206;28;20545;-87
2023/01/04 15:01:27;;;;;;;5.53;4.55;;;;;;;;;;5064613;28;20021;-89
2023/01/04 15:03:53;;;;;;;5.75;4.25;;;;;;;;;;5074885;28;20028;-78
2023/01/04 15:06:20;;;;;;;6.07;4.05;;;;;;;;;;5059900;28;20041;-87
2023/01/04 15:08:46;;;;;;;6.85;4.32;;;;;;;;;;5062437;28;20028;-88
2023/01/04 15:11:12;;;;;;;5.45;4.07;;;;;;;;;;5062203;28;20456;-84
2023/01/04 15:13:39;;;;;;;5.32;4.15;;;;;;;;;;5059877;28;20020;-83
2023/01/04 15:16:06;;;;;;;4.47;4.07;;;;;;;;;;5067138;28;20024;-83
2023/01/04 15:18:32;;;;;;;4.43;3.88;;;;;;;;;;5063875;28;20515;-82